Friday, January 18, 2019, 11:19 PM EST
Back to Local

KLGA, New York La Guardia Airport

Location: Astoria, NY, United States Lat: 40.783
Local Time: 11:19 PM EST ( 4:19 GMT) Lon: -73.883
Time Zone: US/Eastern Elev: 22 ft

Show me the last for .
Show Decoded

2019-01-18 22:51 METAR KLGA 190351Z COR 31008KT 10SM BKN044 BKN250 03/M02 A3017 RMK AO2 SLP216
                 T00281017 =
2019-01-18 21:51 METAR KLGA 190251Z 29008KT 10SM SCT050 BKN250 02/M02 A3015 RMK AO2 SLP210
                 T00221017 53019 =
2019-01-18 20:51 METAR KLGA 190151Z 29007KT 10SM FEW050 BKN250 02/M01 A3012 RMK AO2 SLP200
                 T00221011 =
2019-01-18 19:51 METAR KLGA 190051Z 29009KT 10SM FEW017 SCT050 03/M01 A3010 RMK AO2 SLP193
                 T00281011 =
2019-01-18 18:51 METAR KLGA 182351Z 28007KT 10SM SCT050 03/M01 A3009 RMK AO2 SLP190 T00331011
                 10056 20022 53010 =
2019-01-18 18:23 METAR KLGA 182323Z 29006KT 10SM SCT017 OVC050 03/M01 A3009 RMK AO2 T00331006 =
2019-01-18 17:51 METAR KLGA 182251Z 29011KT 10SM BKN019 OVC032 03/M01 A3009 RMK AO2 SLP188
                 T00331011 =
2019-01-18 16:51 METAR KLGA 182151Z 28008KT 10SM OVC019 04/M01 A3007 RMK AO2 SLP182 T00391006 =
2019-01-18 15:51 METAR KLGA 182051Z VRB03KT 8SM OVC020 04/00 A3007 RMK AO2 SLP180 T00440000 53007
                 =
2019-01-18 14:51 METAR KLGA 181951Z 05005KT 8SM OVC016 03/00 A3004 RMK AO2 SLP171 T00330000 =
2019-01-18 14:31 METAR KLGA 181931Z 05005KT 9SM BKN013 OVC019 03/00 A3004 RMK AO2 T00330000 =
2019-01-18 13:51 METAR KLGA 181851Z 07005KT 8SM SCT012 OVC015 03/00 A3005 RMK AO2 SLP174
                 T00280000 =
2019-01-18 13:21 METAR KLGA 181821Z 05007KT 8SM SCT012 BKN025 OVC035 03/00 A3006 RMK AO2
                 T00330000 =
2019-01-18 12:51 METAR KLGA 181751Z COR 05005KT 8SM FEW009 SCT020 OVC033 02/00 A3006 RMK AO2
                 SLP179 60000 931001 T00220000 10022 20000 58019 =
2019-01-18 11:51 METAR KLGA 181651Z 05007KT 8SM FEW009 OVC034 02/00 A3009 RMK AO2 SLP189
                 T00220000 =
2019-01-18 11:28 METAR KLGA 181628Z 06006KT 8SM SCT008 OVC034 02/M01 A3010 RMK AO2 T00171006 =
2019-01-18 10:51 METAR KLGA 181551Z 03004KT 10SM BKN006 OVC036 02/M01 A3012 RMK AO2 SLP197
                 T00171006 =
2019-01-18 10:28 METAR KLGA 181528Z 05006KT 9SM BKN006 OVC030 01/M01 A3012 RMK AO2 T00111006 =
2019-01-18 09:51 METAR KLGA 181451Z 06008KT 10SM OVC007 01/M01 A3012 RMK AO2 SNE43 SLP198 P0000
                 60000 T00111011 53001 =
2019-01-18 08:51 METAR KLGA 181351Z 03005KT 4SM -SN BR OVC005 01/M01 A3011 RMK AO2 SLP197 P0000
                 T00061011 =
2019-01-18 07:51 METAR KLGA 181251Z 05006KT 3SM -SN BR BKN005 OVC017 00/M01 A3011 RMK AO2 SLP194
                 P0000 T00001011 =
2019-01-18 06:51 METAR KLGA 181151Z 05006KT 4SM -SN BR OVC005 00/M02 A3012 RMK AO2 SLP197 P0000
                 60003 70003 931003 T00001017 10000 21017 56004 =
2019-01-18 06:47 METAR KLGA 181147Z 05006KT 4SM -SN BR OVC005 00/M02 A3011 RMK AO2 P0000 =
2019-01-18 06:09 METAR KLGA 181109Z VRB04KT 5SM -SN BR OVC007 M01/M02 A3011 RMK AO2 P0000
                 T10061017 =
2019-01-18 05:51 METAR KLGA 181051Z 07007KT 3SM -SN BR OVC005 M01/M02 A3011 RMK AO2 SFC VIS 4
                 SLP195 P0000 T10061022 =
2019-01-18 05:49 METAR KLGA 181049Z 07006KT 3SM -SN BR OVC005 M01/M02 A3011 RMK AO2 SFC VIS 3
                 P0000 =
2019-01-18 04:51 METAR KLGA 180951Z 06005KT 1 1/2SM -SN BR OVC005 M01/M02 A3013 RMK AO2 SFC VIS 3
                 SLP201 P0001 T10061022 =
2019-01-18 03:51 METAR KLGA 180851Z 05006KT 1 1/2SM -SN BR OVC005 M01/M03 A3015 RMK AO2 SFC VIS 1
                 3/4 SLP207 P0001 60002 T10111028 58022 =
2019-01-18 03:42 METAR KLGA 180842Z 04005KT 1 1/2SM -SN BR BKN005 OVC017 M01/M03 A3015 RMK AO2
                 SFC VIS 2 P0000 T10111028 =
2019-01-18 03:12 METAR KLGA 180812Z 07008KT 2 1/2SM -SN BR FEW008 OVC018 M01/M03 A3017 RMK AO2
                 P0000 T10111033 =
2019-01-18 02:51 METAR KLGA 180751Z 05007KT 8SM -SN OVC020 M01/M03 A3018 RMK AO2 SLP220 P0001
                 T10111033 =
2019-01-18 02:25 METAR KLGA 180725Z 05007KT 6SM -SN BR SCT023 BKN028 OVC050 M02/M04 A3019 RMK AO2
                 P0001 T10171039 =
2019-01-18 01:51 METAR KLGA 180651Z 04006KT 2SM -SN OVC034 M02/M05 A3020 RMK AO2 TWR VIS 2 1/2
                 SLP226 P0000 T10171050 =
2019-01-18 01:45 METAR KLGA 180645Z 06006KT 2SM -SN OVC032 M02/M05 A3020 RMK AO2 TWR VIS 2 1/2
                 P0000 =
2019-01-18 00:51 METAR KLGA 180551Z 05005KT 3SM -SN OVC034 M01/M07 A3021 RMK AO2 SNB16 SLP230
                 931000 P0000 60000 T10111067 10011 21011 58015 =
2019-01-17 23:51 METAR KLGA 180451Z 05006KT 10SM OVC070 M01/M09 A3024 RMK AO2 SLP238 T10061094
                 400111033 =

Support USWX by starting your Amazon purchase here.